Dai2kousei — JD2542 — position and weather

sailwx.info

Track history (hours):
 
Tides and Currents Weather Stations Pressure Air Temp Water Temp Dewpoint Dewpoint Depression Visibility Wind Speed Wind Dir Waves Ship Positions

Dai2kousei

Last reported at 2014-Oct-11 01:10 UTC. Time now 2014-Oct-23 03:07 UTC.
Position N 33°60' E 134°41'.
Warning: this ship's position is 12 days out of date.

Length 77 m; draft 4 m.

MMSI: 431000467.

Date/timePositionNaut miles runAvg speedWind from/ knotsBaromVisibWave heightAir tempDewpointWater temp
2014-Oct-11 01:10N 33°60' E 134°41'  
2014-Oct-04 04:04N 34°37' E 134°54'610.9
2014-Oct-04 03:32N 34°38' E 135°01'8 8.6
2014-Oct-04 02:33N 34°30' E 135°05'1110.4
2014-Oct-04 01:29N 34°19' E 135°04'5 5.3
2014-Oct-04 00:33N 34°15' E 135°07'0 0.0
2014-Oct-03 23:33N 34°15' E 135°07'0 0.0
2014-Oct-03 22:33N 34°15' E 135°07'0 0.0
2014-Oct-03 21:33N 34°15' E 135°07'0 0.1
2014-Oct-03 20:33N 34°15' E 135°07'0 0.0
2014-Oct-03 19:33N 34°15' E 135°07'1 0.7
2014-Oct-03 18:33N 34°15' E 135°06'0 0.1
2014-Oct-03 17:33N 34°15' E 135°06'0 0.1
2014-Oct-03 16:33N 34°15' E 135°06'0 0.0
2014-Oct-03 15:33N 34°15' E 135°06'0 0.0
2014-Oct-03 14:33N 34°15' E 135°06'0 0.0
2014-Oct-03 13:33N 34°15' E 135°06'0 0.0
2014-Oct-03 12:33N 34°15' E 135°06'0 0.0
2014-Oct-03 11:33N 34°15' E 135°06'0 0.1
2014-Oct-03 10:33N 34°15' E 135°06'0 0.0
2014-Oct-03 09:33N 34°15' E 135°06'0 0.0
2014-Oct-03 08:33N 34°15' E 135°06'0 0.0
2014-Oct-03 07:33N 34°15' E 135°06'0 0.0
2014-Oct-03 06:33N 34°15' E 135°06'0 0.0
2014-Oct-03 05:33N 34°15' E 135°06'0 0.0
2014-Oct-03 04:33N 34°15' E 135°06'0 0.0
2014-Oct-03 03:33N 34°15' E 135°06'0 0.0
2014-Oct-03 02:33N 34°15' E 135°06'0 0.0
2014-Oct-03 01:33N 34°15' E 135°06'0 0.0
2014-Oct-03 00:33N 34°15' E 135°06'0 0.0
2014-Oct-02 23:22N 34°15' E 135°06'3 3.1
2014-Oct-02 22:31N 34°15' E 135°03'1212.3
2014-Oct-02 21:33N 34°26' E 135°10'1212.3
2014-Oct-02 20:33N 34°35' E 135°20'6 4.3
2014-Oct-02 19:14N 34°35' E 135°27'0 0.0
2014-Oct-02 14:28N 34°35' E 135°27'1 0.1
2014-Oct-02 04:30N 34°35' E 135°26'3 3.5
2014-Oct-02 03:34N 34°37' E 135°23'0 0.0
2014-Oct-02 02:34N 34°37' E 135°23'0 0.0
2014-Oct-02 01:33N 34°37' E 135°23'0 0.0
2014-Oct-02 00:33N 34°37' E 135°23'0 0.1
2014-Oct-01 23:33N 34°37' E 135°23'0 0.1
2014-Oct-01 22:33N 34°37' E 135°23'0 0.0
2014-Oct-01 21:34N 34°37' E 135°23'0 0.0
2014-Oct-01 20:34N 34°37' E 135°23'0 0.0
2014-Oct-01 19:33N 34°37' E 135°23'0 0.0
2014-Oct-01 18:34N 34°37' E 135°23'0 0.0
2014-Oct-01 17:34N 34°37' E 135°23'0 0.0
2014-Oct-01 16:34N 34°37' E 135°23'0 0.0
2014-Oct-01 15:34N 34°37' E 135°23'10 9.4
2014-Oct-01 14:29N 34°30' E 135°14'17 8.6
2014-Oct-01 12:33N 34°14' E 135°07'0 0.2
2014-Oct-01 11:33N 34°15' E 135°07'0 0.0
2014-Oct-01 10:33N 34°15' E 135°07'0 0.0
2014-Oct-01 09:33N 34°15' E 135°07'0 0.0
2014-Oct-01 08:33N 34°15' E 135°07'0 0.1
2014-Oct-01 07:33N 34°15' E 135°07'0 0.0
2014-Oct-01 06:34N 34°15' E 135°07'0 0.1
2014-Oct-01 05:33N 34°15' E 135°07'0 0.0
2014-Oct-01 04:33N 34°15' E 135°07'0 0.5
2014-Oct-01 03:33N 34°14' E 135°07'1 0.8
2014-Oct-01 02:34N 34°14' E 135°06'0 0.0
2014-Oct-01 01:33N 34°14' E 135°06'  
Track history (hours):
 
Tides and Currents Weather Stations Pressure Air Temp Water Temp Dewpoint Dewpoint Depression Visibility Wind Speed Wind Dir Waves Ship Positions

Dai2kousei

Last reported at 2014-Oct-11 01:10 UTC. Time now 2014-Oct-23 03:07 UTC.
Position N 33°60' E 134°41'.
Warning: this ship's position is 12 days out of date.

Length 77 m; draft 4 m.

MMSI: 431000467.

Date/timePositionNaut miles runAvg speedWind from/ knotsBaromVisibWave heightAir tempDewpointWater temp
2014-Oct-11 01:10N 33°60' E 134°41'  
2014-Oct-04 04:04N 34°37' E 134°54'610.9
2014-Oct-04 03:32N 34°38' E 135°01'8 8.6
2014-Oct-04 02:33N 34°30' E 135°05'1110.4
2014-Oct-04 01:29N 34°19' E 135°04'5 5.3
2014-Oct-04 00:33N 34°15' E 135°07'0 0.0
2014-Oct-03 23:33N 34°15' E 135°07'0 0.0
2014-Oct-03 22:33N 34°15' E 135°07'0 0.0
2014-Oct-03 21:33N 34°15' E 135°07'0 0.1
2014-Oct-03 20:33N 34°15' E 135°07'0 0.0
2014-Oct-03 19:33N 34°15' E 135°07'1 0.7
2014-Oct-03 18:33N 34°15' E 135°06'0 0.1
2014-Oct-03 17:33N 34°15' E 135°06'0 0.1
2014-Oct-03 16:33N 34°15' E 135°06'0 0.0
2014-Oct-03 15:33N 34°15' E 135°06'0 0.0
2014-Oct-03 14:33N 34°15' E 135°06'0 0.0
2014-Oct-03 13:33N 34°15' E 135°06'0 0.0
2014-Oct-03 12:33N 34°15' E 135°06'0 0.0
2014-Oct-03 11:33N 34°15' E 135°06'0 0.1
2014-Oct-03 10:33N 34°15' E 135°06'0 0.0
2014-Oct-03 09:33N 34°15' E 135°06'0 0.0
2014-Oct-03 08:33N 34°15' E 135°06'0 0.0
2014-Oct-03 07:33N 34°15' E 135°06'0 0.0
2014-Oct-03 06:33N 34°15' E 135°06'0 0.0
2014-Oct-03 05:33N 34°15' E 135°06'0 0.0
2014-Oct-03 04:33N 34°15' E 135°06'0 0.0
2014-Oct-03 03:33N 34°15' E 135°06'0 0.0
2014-Oct-03 02:33N 34°15' E 135°06'0 0.0
2014-Oct-03 01:33N 34°15' E 135°06'0 0.0
2014-Oct-03 00:33N 34°15' E 135°06'0 0.0
2014-Oct-02 23:22N 34°15' E 135°06'3 3.1
2014-Oct-02 22:31N 34°15' E 135°03'1212.3
2014-Oct-02 21:33N 34°26' E 135°10'1212.3
2014-Oct-02 20:33N 34°35' E 135°20'6 4.3
2014-Oct-02 19:14N 34°35' E 135°27'0 0.0
2014-Oct-02 14:28N 34°35' E 135°27'1 0.1
2014-Oct-02 04:30N 34°35' E 135°26'3 3.5
2014-Oct-02 03:34N 34°37' E 135°23'0 0.0
2014-Oct-02 02:34N 34°37' E 135°23'0 0.0
2014-Oct-02 01:33N 34°37' E 135°23'0 0.0
2014-Oct-02 00:33N 34°37' E 135°23'0 0.1
2014-Oct-01 23:33N 34°37' E 135°23'0 0.1
2014-Oct-01 22:33N 34°37' E 135°23'0 0.0
2014-Oct-01 21:34N 34°37' E 135°23'0 0.0
2014-Oct-01 20:34N 34°37' E 135°23'0 0.0
2014-Oct-01 19:33N 34°37' E 135°23'0 0.0
2014-Oct-01 18:34N 34°37' E 135°23'0 0.0
2014-Oct-01 17:34N 34°37' E 135°23'0 0.0
2014-Oct-01 16:34N 34°37' E 135°23'0 0.0
2014-Oct-01 15:34N 34°37' E 135°23'10 9.4
2014-Oct-01 14:29N 34°30' E 135°14'17 8.6
2014-Oct-01 12:33N 34°14' E 135°07'0 0.2
2014-Oct-01 11:33N 34°15' E 135°07'0 0.0
2014-Oct-01 10:33N 34°15' E 135°07'0 0.0
2014-Oct-01 09:33N 34°15' E 135°07'0 0.0
2014-Oct-01 08:33N 34°15' E 135°07'0 0.1
2014-Oct-01 07:33N 34°15' E 135°07'0 0.0
2014-Oct-01 06:34N 34°15' E 135°07'0 0.1
2014-Oct-01 05:33N 34°15' E 135°07'0 0.0
2014-Oct-01 04:33N 34°15' E 135°07'0 0.5
2014-Oct-01 03:33N 34°14' E 135°07'1 0.8
2014-Oct-01 02:34N 34°14' E 135°06'0 0.0
2014-Oct-01 01:33N 34°14' E 135°06'  

Dump ship's entire track history